Terminal Aerodrome Forecast
Issued by NWS

Home | Current Version | Previous Version | Text Only | Print | Product List | Glossary On
Versions: 1 2 3 4 5 6 7 8 9 10 11 12 13 14 15 16 17 18 19 20 21 22 23
000
FTUS42 KTBW 191700
TAFLAL
TAF
KLAL 191734Z 1918/2018 29008KT P6SM BKN025 BKN035
     FM191900 30013KT P6SM SCT015 BKN035 BKN250
     FM200200 VRB06KT P6SM FEW007 SCT010 BKN035
     FM200600 33007KT P6SM SCT250=

USA.gov is the U.S. government's official web portal to all federal, state and local government web resources and services.